Parker Lake, Missouri
Current Conditions -  °F | °C
As of 4:55 AM on Friday 19 Dec 2014 (Local Time) from KFAM Reporting Station
Overcast Overcast  
Wind Chill: 26°   Ceiling: 400
Heat Index: 32°   Visibility: 3mi
Dew Point: 28°   Wind: 7mph
Humidity: 87%   Direction: 330°NNW
Pressure: 30.23"   Gusts: NA
Location:  37.7127°N, 89.8903°W
Report Text: KFAM 191055Z AUTO 33006KT 3SM OVC004 00/M02 A3023 RMK AO1
Loading
Personal Weather Stations






























Interactive Weather Map New forecast layout! Learn more

10-Day Weather Forecast

Advertisements
Track Severe Weather on mobile